createdAt,value
2019-05-10T00:00:36.765Z,10.50
2019-05-10T00:03:23.753Z,10.60
2019-05-10T00:06:10.840Z,10.70
2019-05-10T00:08:48.143Z,10.60
2019-05-10T00:11:41.569Z,10.70
2019-05-10T00:14:35.419Z,10.70
2019-05-10T00:17:15.608Z,10.70
2019-05-10T00:19:45.243Z,10.80
2019-05-10T00:22:14.987Z,10.90
2019-05-10T00:25:00.747Z,10.80
2019-05-10T00:27:15.951Z,10.90
2019-05-10T00:29:45.655Z,10.90
2019-05-10T00:32:15.301Z,10.90
2019-05-10T00:34:44.910Z,10.90
2019-05-10T00:37:14.592Z,10.80
2019-05-10T00:39:44.179Z,10.80
2019-05-10T00:42:13.817Z,10.70
2019-05-10T00:44:43.339Z,10.60
2019-05-10T00:47:12.942Z,10.60
2019-05-10T00:49:42.614Z,10.50
2019-05-10T00:52:12.220Z,10.50
2019-05-10T00:54:41.818Z,10.40
2019-05-10T00:57:11.371Z,10.30
2019-05-10T00:59:40.921Z,10.30
2019-05-10T01:02:10.532Z,10.30
2019-05-10T01:04:40.072Z,10.20
2019-05-10T01:07:09.608Z,10.30
2019-05-10T01:09:39.319Z,10.10
2019-05-10T01:12:08.991Z,10.20
2019-05-10T01:14:38.557Z,10.10
2019-05-10T01:17:08.084Z,10.00
2019-05-10T01:19:37.748Z,10.00
2019-05-10T01:22:07.250Z,9.90
2019-05-10T01:24:36.839Z,9.80
2019-05-10T01:27:06.382Z,9.80
2019-05-10T01:29:36.044Z,9.80
2019-05-10T01:32:05.738Z,9.80
2019-05-10T01:34:35.375Z,9.90
2019-05-10T01:37:05.066Z,9.90
2019-05-10T01:39:34.715Z,10.00
2019-05-10T01:42:04.723Z,10.10
2019-05-10T01:44:34.289Z,10.10
2019-05-10T01:47:03.899Z,10.10
2019-05-10T01:49:33.496Z,10.20
2019-05-10T01:52:03.107Z,10.20
2019-05-10T01:54:32.730Z,10.20
2019-05-10T01:57:02.338Z,10.20
2019-05-10T01:59:31.908Z,10.20
2019-05-10T02:02:01.496Z,10.20
2019-05-10T02:04:31.114Z,10.10
2019-05-10T02:07:00.702Z,10.20
2019-05-10T02:09:33.284Z,10.20
2019-05-10T02:12:01.473Z,10.30
2019-05-10T02:14:31.068Z,10.30
2019-05-10T02:17:00.669Z,10.30
2019-05-10T02:19:30.339Z,10.30
2019-05-10T02:21:59.869Z,10.20
2019-05-10T02:24:29.488Z,10.20
2019-05-10T02:26:59.027Z,10.20
2019-05-10T02:29:28.633Z,10.20
2019-05-10T02:31:58.266Z,10.20
2019-05-10T02:34:27.930Z,10.20
2019-05-10T02:36:57.513Z,10.20
2019-05-10T02:39:27.153Z,10.20
2019-05-10T02:41:56.830Z,10.10
2019-05-10T02:44:26.430Z,10.20
2019-05-10T02:46:56.229Z,10.20
2019-05-10T02:49:25.845Z,10.10
2019-05-10T02:51:55.464Z,10.20
2019-05-10T02:54:25.221Z,10.20
2019-05-10T02:56:55.143Z,10.30
2019-05-10T02:59:25.699Z,10.30
2019-05-10T03:01:57.524Z,10.20
2019-05-10T03:04:27.798Z,10.00
2019-05-10T03:07:06.149Z,9.90
2019-05-10T03:09:36.009Z,9.90
2019-05-10T03:12:24.228Z,9.80
2019-05-10T03:14:55.694Z,9.80
2019-05-10T03:17:27.500Z,9.80
2019-05-10T03:19:57.235Z,9.90
2019-05-10T03:22:27.040Z,10.00
2019-05-10T03:24:56.692Z,10.10
2019-05-10T03:27:26.651Z,10.10
2019-05-10T03:29:56.235Z,10.10
2019-05-10T03:32:25.890Z,10.10
2019-05-10T03:34:55.546Z,10.10
2019-05-10T03:37:25.239Z,10.00
2019-05-10T03:39:54.944Z,10.10
2019-05-10T03:42:24.612Z,10.10
2019-05-10T03:44:54.318Z,10.10
2019-05-10T03:47:23.890Z,10.20
2019-05-10T03:49:53.513Z,10.30
2019-05-10T03:52:23.145Z,10.30
2019-05-10T03:54:52.764Z,10.30
2019-05-10T03:57:22.431Z,10.20
2019-05-10T03:59:52.075Z,10.20
2019-05-10T04:02:21.715Z,10.10
2019-05-10T04:04:51.371Z,10.10
2019-05-10T04:07:20.956Z,10.00
2019-05-10T04:09:50.552Z,10.00
2019-05-10T04:12:20.216Z,9.90
2019-05-10T04:14:49.843Z,9.90
2019-05-10T04:17:19.605Z,9.90
2019-05-10T04:19:49.227Z,9.90
2019-05-10T04:22:18.768Z,10.00
2019-05-10T04:24:48.294Z,10.10
2019-05-10T04:27:31.709Z,10.00
2019-05-10T04:29:49.281Z,10.00
2019-05-10T04:32:18.918Z,9.80
2019-05-10T04:34:48.553Z,9.70
2019-05-10T04:37:18.150Z,9.70
2019-05-10T04:39:48.777Z,9.70
2019-05-10T04:42:18.382Z,9.60
2019-05-10T04:44:52.603Z,9.60
2019-05-10T04:47:19.284Z,9.60
2019-05-10T04:49:48.801Z,9.70
2019-05-10T04:52:18.385Z,9.70
2019-05-10T04:54:48.051Z,9.80
2019-05-10T04:57:17.656Z,9.90
2019-05-10T04:59:47.350Z,9.80
2019-05-10T05:02:21.842Z,9.80
2019-05-10T05:04:48.156Z,9.90
2019-05-10T05:07:27.892Z,10.10
2019-05-10T05:09:57.804Z,10.20
2019-05-10T05:12:27.440Z,10.10
2019-05-10T05:14:57.036Z,10.10
2019-05-10T05:17:26.587Z,10.10
2019-05-10T05:19:56.247Z,10.20
2019-05-10T05:22:25.876Z,10.20
2019-05-10T05:25:01.330Z,10.40
2019-05-10T05:27:26.764Z,10.50
2019-05-10T05:29:56.413Z,10.40
2019-05-10T05:32:26.033Z,10.40
2019-05-10T05:34:55.683Z,10.40
2019-05-10T05:37:25.325Z,10.50
2019-05-10T05:39:54.920Z,10.60
2019-05-10T05:42:27.913Z,10.60
2019-05-10T05:44:55.763Z,10.70
2019-05-10T05:47:25.453Z,10.70
2019-05-10T05:49:55.103Z,10.80
2019-05-10T05:52:24.733Z,10.80
2019-05-10T05:54:57.585Z,10.80
2019-05-10T05:57:27.709Z,10.90
2019-05-10T05:59:57.305Z,10.90
2019-05-10T06:02:28.192Z,11.00
2019-05-10T06:04:57.832Z,11.10
2019-05-10T06:07:31.101Z,11.00
2019-05-10T06:09:58.745Z,11.00
2019-05-10T06:12:28.381Z,11.10
2019-05-10T06:14:58.016Z,11.10
2019-05-10T06:17:29.594Z,11.20
2019-05-10T06:20:01.032Z,11.30
2019-05-10T06:22:30.145Z,11.40
2019-05-10T06:24:59.668Z,11.50
2019-05-10T06:27:29.222Z,11.60
2019-05-10T06:29:59.819Z,11.60
2019-05-10T06:32:29.449Z,11.60
2019-05-10T06:34:59.088Z,11.70
2019-05-10T06:37:31.318Z,11.70
2019-05-10T06:39:59.926Z,11.70
2019-05-10T06:42:34.763Z,11.80
2019-05-10T06:45:05.076Z,11.80
2019-05-10T06:47:32.063Z,11.80
2019-05-10T06:50:01.651Z,11.70
2019-05-10T06:52:31.290Z,11.80
2019-05-10T06:55:00.879Z,11.90
2019-05-10T06:57:30.425Z,12.00
2019-05-10T07:00:06.007Z,12.00
2019-05-10T07:02:32.477Z,12.00
2019-05-10T07:05:02.414Z,12.10
2019-05-10T07:07:43.375Z,12.10
2019-05-10T07:10:12.208Z,12.10
2019-05-10T07:12:34.649Z,12.10
2019-05-10T07:15:05.529Z,12.20
2019-05-10T07:17:41.453Z,12.30
2019-05-10T07:20:07.002Z,12.30
2019-05-10T07:22:36.564Z,12.30
2019-05-10T07:25:07.504Z,12.40
2019-05-10T07:27:57.801Z,12.40
2019-05-10T07:30:35.351Z,12.50
2019-05-10T07:33:05.414Z,12.70
2019-05-10T07:35:36.812Z,12.70
2019-05-10T07:38:06.279Z,12.70
2019-05-10T07:40:35.905Z,12.70
2019-05-10T07:43:05.543Z,12.80
2019-05-10T07:45:35.494Z,12.80
2019-05-10T07:48:08.211Z,12.90
2019-05-10T07:50:36.377Z,12.90
2019-05-10T07:53:06.017Z,13.00
2019-05-10T07:55:35.636Z,13.00
2019-05-10T07:58:06.982Z,13.10
2019-05-10T08:00:37.982Z,13.10
2019-05-10T08:03:16.580Z,13.10
2019-05-10T08:05:39.317Z,13.00
2019-05-10T08:08:09.541Z,13.10
2019-05-10T08:10:39.548Z,13.20
2019-05-10T08:13:09.314Z,13.30
2019-05-10T08:15:38.960Z,13.30
2019-05-10T08:18:09.859Z,13.30
2019-05-10T08:20:49.193Z,13.50
2019-05-10T08:23:12.892Z,13.50
2019-05-10T08:25:46.861Z,13.70
2019-05-10T08:28:16.338Z,13.70
2019-05-10T08:30:53.678Z,13.80
2019-05-10T08:33:18.281Z,13.70
2019-05-10T08:35:52.413Z,13.70
2019-05-10T08:38:19.191Z,13.70
2019-05-10T08:40:48.743Z,13.60
2019-05-10T08:43:18.415Z,13.50
2019-05-10T08:45:49.579Z,13.50
2019-05-10T08:48:19.344Z,13.50
2019-05-10T08:50:54.014Z,13.70
2019-05-10T08:53:20.253Z,13.70
2019-05-10T08:55:52.487Z,13.70
2019-05-10T08:58:31.656Z,13.80
2019-05-10T09:01:09.644Z,13.80
2019-05-10T09:03:24.431Z,13.70
2019-05-10T09:05:54.066Z,13.50
2019-05-10T09:08:27.223Z,13.40
2019-05-10T09:10:54.897Z,13.40
2019-05-10T09:13:28.750Z,13.40
2019-05-10T09:15:56.994Z,13.50
2019-05-10T09:18:26.779Z,13.60
2019-05-10T09:21:00.393Z,13.70
2019-05-10T09:23:27.655Z,13.80
2019-05-10T09:26:03.602Z,13.90
2019-05-10T09:28:28.571Z,14.00
2019-05-10T09:31:15.245Z,14.10
2019-05-10T09:33:31.872Z,14.10
2019-05-10T09:36:02.792Z,14.20
2019-05-10T09:38:37.180Z,14.40
2019-05-10T09:41:03.283Z,14.50
2019-05-10T09:43:32.857Z,14.60
2019-05-10T09:46:02.857Z,14.70
2019-05-10T09:48:33.336Z,14.70
2019-05-10T09:51:04.325Z,14.80
2019-05-10T09:53:34.159Z,14.70
2019-05-10T09:56:03.688Z,14.80
2019-05-10T09:58:33.315Z,14.90
2019-05-10T10:01:14.831Z,14.90
2019-05-10T10:03:39.762Z,14.80
2019-05-10T10:06:10.185Z,14.80
2019-05-10T10:08:38.432Z,14.70
2019-05-10T10:11:15.106Z,14.50
2019-05-10T10:13:43.552Z,14.40
2019-05-10T10:16:14.655Z,14.40
2019-05-10T10:18:42.083Z,14.30
2019-05-10T10:21:13.240Z,14.30
2019-05-10T10:23:43.193Z,14.40
2019-05-10T10:26:17.765Z,14.40
2019-05-10T10:28:49.582Z,14.40
2019-05-10T10:31:27.092Z,14.40
2019-05-10T10:33:54.804Z,14.40
2019-05-10T10:36:19.435Z,14.40
2019-05-10T10:38:49.777Z,14.40
2019-05-10T10:41:25.871Z,14.40
2019-05-10T10:43:50.870Z,14.50
2019-05-10T10:46:20.481Z,14.60
2019-05-10T10:48:51.462Z,14.80
2019-05-10T10:51:21.293Z,15.00
2019-05-10T10:53:54.491Z,15.00
2019-05-10T10:56:22.277Z,15.10
2019-05-10T10:58:51.901Z,15.10
2019-05-10T11:01:25.351Z,15.10
2019-05-10T11:03:52.841Z,15.20
2019-05-10T11:06:22.510Z,15.50
2019-05-10T11:08:52.134Z,15.70
2019-05-10T11:11:21.808Z,15.70
2019-05-10T11:13:58.211Z,15.70
2019-05-10T11:16:22.823Z,15.60
2019-05-10T11:18:52.436Z,15.40
2019-05-10T11:21:23.319Z,15.20
2019-05-10T11:23:53.382Z,15.00
2019-05-10T11:26:26.969Z,14.90
2019-05-10T11:28:54.434Z,14.70
2019-05-10T11:31:24.108Z,14.30
2019-05-10T11:33:58.445Z,13.90
2019-05-10T11:36:24.910Z,13.60
2019-05-10T11:38:58.397Z,13.20
2019-05-10T11:41:25.771Z,13.00
2019-05-10T11:43:57.798Z,12.80
2019-05-10T11:46:28.040Z,12.80
2019-05-10T11:48:57.704Z,12.80
2019-05-10T11:51:27.406Z,12.90
2019-05-10T11:53:59.664Z,13.00
2019-05-10T11:56:28.303Z,13.10
2019-05-10T11:58:57.952Z,13.30
2019-05-10T12:01:27.579Z,13.50
2019-05-10T12:03:57.192Z,13.60
2019-05-10T12:06:26.829Z,13.70
2019-05-10T12:14:05.881Z,13.70
2019-05-10T12:16:35.449Z,13.70
2019-05-10T12:19:15.226Z,13.70
2019-05-10T12:21:36.384Z,13.90
2019-05-10T12:24:26.296Z,14.10
2019-05-10T12:26:05.229Z,13.60
2019-05-10T12:26:31.061Z,13.70
2019-05-10T12:29:13.537Z,14.50
2019-05-10T12:31:41.505Z,14.60
2019-05-10T12:34:14.445Z,14.60
2019-05-10T12:36:43.572Z,14.70
2019-05-10T12:39:13.212Z,14.70
2019-05-10T12:41:48.389Z,14.60
2019-05-10T12:44:14.924Z,14.70
2019-05-10T12:46:44.464Z,15.00
2019-05-10T12:49:14.102Z,15.10
2019-05-10T12:51:43.718Z,15.00
2019-05-10T12:54:13.224Z,15.00
2019-05-10T12:56:45.929Z,15.00
2019-05-10T12:59:13.956Z,15.00
2019-05-10T13:01:43.511Z,15.00
2019-05-10T13:04:14.756Z,14.80
2019-05-10T13:06:44.425Z,14.80
2019-05-10T13:09:13.914Z,14.80
2019-05-10T13:11:43.521Z,14.70
2019-05-10T13:14:13.109Z,14.90
2019-05-10T13:16:42.615Z,14.90
2019-05-10T13:19:20.100Z,14.90
2019-05-10T13:21:46.729Z,15.00
2019-05-10T13:24:16.230Z,14.80
2019-05-10T13:26:45.801Z,14.70
2019-05-10T13:29:15.834Z,14.70
2019-05-10T13:31:45.381Z,14.70
2019-05-10T13:34:14.904Z,14.70
2019-05-10T13:36:44.496Z,14.70
2019-05-10T13:39:19.077Z,14.50
2019-05-10T13:41:45.257Z,14.40
2019-05-10T13:44:18.183Z,14.50
2019-05-10T13:46:47.720Z,14.70
2019-05-10T13:49:17.228Z,14.90
2019-05-10T13:51:46.860Z,15.00
2019-05-10T13:54:16.503Z,15.00
2019-05-10T13:56:52.379Z,14.90
2019-05-10T13:59:27.751Z,15.10
2019-05-10T14:01:57.379Z,15.30
2019-05-10T14:04:26.935Z,15.60
2019-05-10T14:06:56.520Z,15.70
2019-05-10T14:09:26.110Z,15.60
2019-05-10T14:11:55.744Z,15.40
2019-05-10T14:14:44.142Z,15.60
2019-05-10T14:17:13.442Z,15.80
2019-05-10T14:19:50.902Z,16.10
2019-05-10T14:22:20.185Z,16.40
2019-05-10T14:24:53.300Z,16.50
2019-05-10T14:27:20.351Z,16.60
2019-05-10T14:29:49.674Z,16.50
2019-05-10T14:32:30.966Z,16.50
2019-05-10T14:35:00.326Z,16.30
2019-05-10T14:37:50.434Z,16.20
2019-05-10T14:40:34.047Z,16.30
2019-05-10T14:43:03.433Z,16.20
2019-05-10T14:45:33.878Z,16.20
2019-05-10T14:48:03.261Z,16.10
2019-05-10T14:50:32.530Z,16.10
2019-05-10T14:53:01.772Z,16.00
2019-05-10T14:55:34.499Z,16.20
2019-05-10T14:58:02.051Z,16.10
2019-05-10T15:00:31.303Z,15.90
2019-05-10T15:03:02.191Z,15.80
2019-05-10T15:05:31.578Z,15.90
2019-05-10T15:08:00.862Z,15.90
2019-05-10T15:10:33.151Z,15.90
2019-05-10T15:13:01.076Z,16.00
2019-05-10T15:15:31.081Z,15.90
2019-05-10T15:18:04.587Z,16.00
2019-05-10T15:20:35.854Z,16.30
2019-05-10T15:23:04.905Z,16.60
2019-05-10T15:25:34.170Z,16.70
2019-05-10T15:28:03.442Z,16.70
2019-05-10T15:30:32.701Z,16.90
2019-05-10T15:33:02.011Z,17.20
2019-05-10T15:35:31.329Z,17.50
2019-05-10T15:38:00.589Z,17.40
2019-05-10T15:40:29.832Z,17.50
2019-05-10T15:43:02.587Z,17.50
2019-05-10T15:45:30.112Z,17.30
2019-05-10T15:48:03.022Z,17.30
2019-05-10T15:50:32.411Z,17.20
2019-05-10T15:53:01.336Z,17.30
2019-05-10T15:55:30.606Z,17.30
2019-05-10T15:58:00.202Z,17.20
2019-05-10T16:00:37.734Z,17.10
2019-05-10T16:03:07.897Z,17.00
2019-05-10T16:05:43.438Z,17.00
2019-05-10T16:08:09.473Z,17.00
2019-05-10T16:10:40.751Z,17.00
2019-05-10T16:13:14.473Z,17.00
2019-05-10T16:15:41.242Z,16.80
2019-05-10T16:18:10.973Z,16.80
2019-05-10T16:20:40.683Z,16.80
2019-05-10T16:23:11.244Z,16.80
2019-05-10T16:25:47.574Z,16.90
2019-05-10T16:28:15.355Z,16.90
2019-05-10T16:30:46.905Z,16.70
2019-05-10T16:33:15.967Z,16.60
2019-05-10T16:35:49.745Z,16.70
2019-05-10T16:38:17.821Z,16.80
2019-05-10T16:40:56.849Z,16.80
2019-05-10T16:43:24.012Z,16.80
2019-05-10T16:45:49.939Z,16.60
2019-05-10T16:48:19.393Z,16.50
2019-05-10T16:50:48.721Z,16.50
2019-05-10T16:53:18.292Z,16.50
2019-05-10T16:55:47.836Z,16.50
2019-05-10T16:58:17.982Z,16.70
2019-05-10T17:00:48.059Z,16.60
2019-05-10T17:03:18.673Z,16.70
2019-05-10T17:05:53.553Z,16.70
2019-05-10T17:08:19.948Z,16.60
2019-05-10T17:10:49.399Z,16.60
2019-05-10T17:13:18.659Z,16.60
2019-05-10T17:15:47.925Z,16.70
2019-05-10T17:18:19.827Z,16.70
2019-05-10T17:20:50.956Z,16.80
2019-05-10T17:23:19.223Z,16.90
2019-05-10T17:25:48.487Z,16.90
2019-05-10T17:28:17.773Z,17.00
2019-05-10T17:30:47.050Z,17.00
2019-05-10T17:33:16.351Z,17.10
2019-05-10T17:35:45.637Z,17.10
2019-05-10T17:38:16.227Z,17.10
2019-05-10T17:40:47.991Z,17.10
2019-05-10T17:43:20.615Z,17.10
2019-05-10T17:45:48.215Z,17.20
2019-05-10T17:48:17.393Z,17.10
2019-05-10T17:50:46.667Z,17.20
2019-05-10T17:53:15.964Z,17.20
2019-05-10T17:55:49.507Z,17.10
2019-05-10T17:58:17.227Z,17.00
2019-05-10T18:00:46.793Z,17.00
2019-05-10T18:03:16.051Z,17.00
2019-05-10T18:05:46.871Z,16.90
2019-05-10T18:08:16.348Z,16.80
2019-05-10T18:10:45.621Z,16.80
2019-05-10T18:13:14.877Z,16.80
2019-05-10T18:15:44.172Z,16.80
2019-05-10T18:18:13.439Z,16.80
2019-05-10T18:20:44.571Z,16.70
2019-05-10T18:23:20.356Z,16.70
2019-05-10T18:25:44.955Z,16.70
2019-05-10T18:28:17.755Z,16.80
2019-05-10T18:30:45.648Z,16.80
2019-05-10T18:33:14.840Z,16.80
2019-05-10T18:35:47.620Z,16.70
2019-05-10T18:38:16.660Z,16.60
2019-05-10T18:40:45.952Z,16.30
2019-05-10T18:43:15.210Z,16.00
2019-05-10T18:45:44.464Z,15.70
2019-05-10T18:48:13.766Z,15.50
2019-05-10T18:50:45.222Z,15.40
2019-05-10T18:53:13.995Z,15.40
2019-05-10T18:55:43.245Z,15.30
2019-05-10T18:58:12.502Z,15.30
2019-05-10T19:00:41.744Z,15.20
2019-05-10T19:03:11.177Z,15.20
2019-05-10T19:05:40.404Z,15.00
2019-05-10T19:08:09.684Z,14.90
2019-05-10T19:10:38.945Z,14.80
2019-05-10T19:13:08.697Z,14.60
2019-05-10T19:15:38.278Z,14.30
2019-05-10T19:18:07.600Z,14.10
2019-05-10T19:20:36.795Z,13.90
2019-05-10T19:23:06.145Z,13.90
2019-05-10T19:25:37.691Z,13.90
2019-05-10T19:28:06.418Z,14.00
2019-05-10T19:30:35.849Z,14.00
2019-05-10T19:33:05.146Z,13.90
2019-05-10T19:35:36.011Z,13.80
2019-05-10T19:38:05.456Z,13.90
2019-05-10T19:40:34.633Z,14.00
2019-05-10T19:43:03.933Z,13.90
2019-05-10T19:45:33.172Z,14.00
2019-05-10T19:48:05.757Z,14.00
2019-05-10T19:50:33.445Z,13.90
2019-05-10T19:53:03.955Z,13.80
2019-05-10T19:55:33.792Z,13.90
2019-05-10T19:58:08.983Z,13.90
2019-05-10T20:00:38.371Z,13.90
2019-05-10T20:03:07.628Z,13.90
2019-05-10T20:05:36.886Z,13.90
2019-05-10T20:08:06.142Z,14.00
2019-05-10T20:10:35.435Z,14.00
2019-05-10T20:13:04.727Z,14.10
2019-05-10T20:15:33.942Z,14.10
2019-05-10T20:18:03.337Z,14.20
2019-05-10T20:20:33.107Z,14.20
2019-05-10T20:23:02.460Z,14.10
2019-05-10T20:25:50.115Z,14.20
2019-05-10T20:28:19.452Z,14.20
2019-05-10T20:30:48.731Z,14.20
2019-05-10T20:33:18.006Z,14.20
2019-05-10T20:35:47.281Z,14.10
2019-05-10T20:38:16.612Z,13.90
2019-05-10T20:40:45.859Z,13.80
2019-05-10T20:43:15.218Z,13.70
2019-05-10T20:45:44.512Z,13.60
2019-05-10T20:48:15.353Z,13.60
2019-05-10T20:50:44.654Z,13.50
2019-05-10T20:53:14.007Z,13.50
2019-05-10T20:55:43.400Z,13.40
2019-05-10T20:58:12.843Z,13.30
2019-05-10T21:00:42.249Z,13.30
2019-05-10T21:03:14.071Z,13.30
2019-05-10T21:05:43.386Z,13.30
2019-05-10T21:08:17.299Z,13.20
2019-05-10T21:10:46.907Z,13.00
2019-05-10T21:13:16.250Z,13.00
2019-05-10T21:15:45.547Z,12.90
2019-05-10T21:18:14.861Z,12.80
2019-05-10T21:20:47.228Z,12.90
2019-05-10T21:23:16.610Z,12.70
2019-05-10T21:25:46.169Z,12.70
2019-05-10T21:28:15.562Z,12.80
2019-05-10T21:30:49.202Z,12.90
2019-05-10T21:33:18.814Z,13.00
2019-05-10T21:35:48.091Z,13.10
2019-05-10T21:38:32.028Z,13.20
2019-05-10T21:40:48.541Z,13.30
2019-05-10T21:43:17.811Z,13.40
2019-05-10T21:45:47.121Z,13.40
2019-05-10T21:48:16.513Z,13.40
2019-05-10T21:50:45.718Z,13.50
2019-05-10T21:53:15.036Z,13.50
2019-05-10T21:55:44.317Z,13.50
2019-05-10T21:58:13.545Z,13.50
2019-05-10T22:00:44.986Z,13.40
2019-05-10T22:03:14.469Z,13.50
2019-05-10T22:05:43.831Z,13.60
2019-05-10T22:08:13.151Z,13.60
2019-05-10T22:10:46.295Z,13.60
2019-05-10T22:13:15.585Z,13.60
2019-05-10T22:15:44.885Z,13.50
2019-05-10T22:18:14.245Z,13.30
2019-05-10T22:20:43.550Z,13.10
2019-05-10T22:23:13.003Z,12.70
2019-05-10T22:25:42.341Z,12.40
2019-05-10T22:28:11.680Z,12.20
2019-05-10T22:30:46.821Z,12.10
2019-05-10T22:33:16.194Z,12.00
2019-05-10T22:35:45.466Z,11.80
2019-05-10T22:38:14.715Z,11.70
2019-05-10T22:40:43.939Z,11.70
2019-05-10T22:43:13.430Z,11.70
2019-05-10T22:45:42.818Z,11.70
2019-05-10T22:48:12.068Z,11.70
2019-05-10T22:50:41.383Z,11.50
2019-05-10T22:53:10.681Z,11.50
2019-05-10T22:55:40.040Z,11.40
2019-05-10T22:58:09.320Z,11.40
2019-05-10T23:00:38.674Z,11.40
2019-05-10T23:03:07.943Z,11.40
2019-05-10T23:05:37.222Z,11.40
2019-05-10T23:08:06.558Z,11.30
2019-05-10T23:10:35.893Z,11.30
2019-05-10T23:13:05.175Z,11.30
2019-05-10T23:15:37.536Z,11.20
2019-05-10T23:18:06.811Z,11.30
2019-05-10T23:20:36.190Z,11.20
2019-05-10T23:23:05.450Z,11.30
2019-05-10T23:25:34.754Z,11.20
2019-05-10T23:28:03.969Z,11.10
2019-05-10T23:30:36.369Z,11.20
2019-05-10T23:33:05.733Z,11.20
2019-05-10T23:35:37.797Z,11.20
2019-05-10T23:38:07.246Z,11.20
2019-05-10T23:40:36.430Z,11.20
2019-05-10T23:43:05.685Z,11.20
2019-05-10T23:45:34.879Z,11.30
2019-05-10T23:48:04.141Z,11.40
2019-05-10T23:50:33.409Z,11.50
2019-05-10T23:53:02.562Z,11.60
2019-05-10T23:55:31.817Z,11.60
2019-05-10T23:58:01.057Z,11.60
